Time;durP1;ratioP1;P1;durP2;ratioP2;P2;SDS_P1;SDS_P2;PMS_P1;PMS_P2;Temp;Humidity;BMP_temperature;BMP_pressure;BME280_temperature;BME280_humidity;BME280_pressure;Samples;Min_cycle;Max_cycle;Signal;HPM_P1;HPM_P2
2023/01/25 00:01:02;;;;;;;;;;;;;;;2.25;100.00;103746.94;4973116;28;19937;-64
2023/01/25 00:03:28;;;;;;;;;;;;;;;2.23;100.00;103742.66;5005257;28;20508;-64
2023/01/25 00:05:59;;;;;;;;;;;;;;;2.19;100.00;103739.25;4996690;28;20726;-64
2023/01/25 00:08:26;;;;;;;;;;;;;;;2.10;100.00;103727.28;5001064;28;20585;-65
2023/01/25 00:10:52;;;;;;;;;;;;;;;2.04;100.00;103723.91;4996413;28;19929;-64
2023/01/25 00:13:19;;;;;;;;;;;;;;;2.14;100.00;103725.53;5001060;28;19962;-65
2023/01/25 00:15:45;;;;;;;;;;;;;;;2.14;100.00;103723.78;5003995;28;19936;-64
2023/01/25 00:18:11;;;;;;;;;;;;;;;2.21;100.00;103716.78;4997753;28;19933;-64
2023/01/25 00:20:38;;;;;;;;;;;;;;;2.22;100.00;103715.91;5004365;28;19930;-64
2023/01/25 00:23:04;;;;;;;;;;;;;;;2.24;100.00;103716.75;4985368;28;19929;-64
2023/01/25 00:25:30;;;;;;;;;;;;;;;2.14;100.00;103716.00;5000998;28;19926;-64
2023/01/25 00:27:56;;;;;;;;;;;;;;;2.22;100.00;103715.06;5001908;28;19933;-64
2023/01/25 00:30:23;;;;;;;;;;;;;;;2.21;100.00;103718.53;4993250;28;20025;-64
2023/01/25 00:32:56;;;;;;;;;;;;;;;2.22;100.00;103709.88;4980136;28;19937;-64
2023/01/25 00:35:23;;;;;;;;;;;;;;;2.18;100.00;103704.75;4998350;28;19929;-64
2023/01/25 00:37:51;;;;;;;;;;;;;;;2.18;100.00;103694.38;4991272;28;19929;-64
2023/01/25 00:40:18;;;;;;;;;;;;;;;2.15;100.00;103707.34;4986312;28;20303;-64
2023/01/25 00:42:44;;;;;;;;;;;;;;;2.16;100.00;103706.50;4998707;28;20408;-64
2023/01/25 00:45:11;;;;;;;;;;;;;;;2.17;100.00;103704.75;4999920;28;19929;-65
2023/01/25 00:47:38;;;;;;;;;;;;;;;2.07;100.00;103696.25;4996464;28;20397;-64
2023/01/25 00:50:07;;;;;;;;;;;;;;;2.08;100.00;103702.28;4998719;28;19933;-64
2023/01/25 00:52:34;;;;;;;;;;;;;;;1.96;100.00;103687.75;4992053;28;19991;-64
2023/01/25 00:55:00;;;;;;;;;;;;;;;1.98;100.00;103697.25;5000307;28;19930;-64
2023/01/25 00:57:27;;;;;;;;;;;;;;;1.85;100.00;103700.84;4997592;28;20425;-64
2023/01/25 00:59:53;;;;;;;;;;;;;;;1.87;100.00;103704.28;5002562;28;19981;-64
2023/01/25 01:02:19;;;;;;;;;;;;;;;1.89;100.00;103697.34;4996063;28;19929;-65
2023/01/25 01:04:46;;;;;;;;;;;;;;;1.96;100.00;103693.81;4997138;28;19976;-64
2023/01/25 01:07:13;;;;;;;;;;;;;;;2.01;100.00;103696.34;4996630;28;19925;-64
2023/01/25 01:09:39;;;;;;;;;;;;;;;2.04;100.00;103701.50;4989467;28;20043;-64
2023/01/25 01:12:06;;;;;;;;;;;;;;;1.91;100.00;103693.00;4995378;28;19929;-64
2023/01/25 01:14:32;;;;;;;;;;;;;;;1.93;100.00;103693.00;4980668;28;20524;-64
2023/01/25 01:16:58;;;;;;;;;;;;;;;1.95;100.00;103693.84;5000994;28;19933;-64
2023/01/25 01:19:25;;;;;;;;;;;;;;;1.98;100.00;103693.81;4995023;28;19982;-65
2023/01/25 01:21:51;;;;;;;;;;;;;;;2.00;100.00;103694.63;4992675;28;19926;-65
2023/01/25 01:24:18;;;;;;;;;;;;;;;2.02;100.00;103692.00;5004249;28;19991;-64
2023/01/25 01:26:45;;;;;;;;;;;;;;;2.00;100.00;103693.75;4996682;28;19929;-64
2023/01/25 01:29:12;;;;;;;;;;;;;;;2.05;100.00;103691.97;4998693;28;19929;-64
2023/01/25 01:31:38;;;;;;;;;;;;;;;2.03;100.00;103699.75;4999490;28;19933;-65
2023/01/25 01:34:04;;;;;;;;;;;;;;;2.08;100.00;103699.69;4991794;28;19941;-64
2023/01/25 01:36:31;;;;;;;;;;;;;;;2.11;100.00;103697.06;4997690;28;19929;-64
2023/01/25 01:38:58;;;;;;;;;;;;;;;2.10;100.00;103698.81;4999534;28;19945;-64
2023/01/25 01:41:25;;;;;;;;;;;;;;;2.07;100.00;103692.81;5007394;28;19944;-64
2023/01/25 01:43:52;;;;;;;;;;;;;;;1.96;100.00;103691.22;4986499;28;20003;-64
2023/01/25 01:46:24;;;;;;;;;;;;;;;1.99;100.00;103690.31;5003815;28;20352;-64
2023/01/25 01:48:50;;;;;;;;;;;;;;;2.03;100.00;103685.97;4994652;28;19929;-64
2023/01/25 01:51:25;;;;;;;;;;;;;;;2.05;100.00;103686.81;5001203;28;19926;-64
2023/01/25 01:53:57;;;;;;;;;;;;;;;2.05;100.00;103686.81;4996060;28;19930;-64
2023/01/25 01:56:36;;;;;;;;;;;;;;;2.06;100.00;103689.38;4997007;28;19930;-64
2023/01/25 01:59:03;;;;;;;;;;;;;;;1.98;100.00;103689.47;5001565;28;19930;-64
2023/01/25 02:01:30;;;;;;;;;;;;;;;1.92;100.00;103686.97;5000632;28;19930;-64
2023/01/25 02:03:56;;;;;;;;;;;;;;;1.75;100.00;103694.09;5006055;28;19944;-63
2023/01/25 02:06:23;;;;;;;;;;;;;;;1.78;100.00;103679.38;5000379;28;19929;-64
2023/01/25 02:08:50;;;;;;;;;;;;;;;1.81;100.00;103680.22;5007003;28;19926;-64
2023/01/25 02:11:18;;;;;;;;;;;;;;;1.79;100.00;103675.06;4992830;28;20397;-64
2023/01/25 02:13:44;;;;;;;;;;;;;;;1.69;100.00;103676.91;4992023;28;19933;-64
2023/01/25 02:16:15;;;;;;;;;;;;;;;1.62;100.00;103671.81;5002331;28;20331;-64
2023/01/25 02:18:41;;;;;;;;;;;;;;;1.64;100.00;103664.88;5000909;28;19965;-64
2023/01/25 02:21:09;;;;;;;;;;;;;;;1.58;100.00;103671.00;5005792;28;20314;-64
2023/01/25 02:23:39;;;;;;;;;;;;;;;1.62;100.00;103667.50;4989399;28;20328;-64
2023/01/25 02:26:06;;;;;;;;;;;;;;;1.65;100.00;103653.69;5001110;28;20321;-64
2023/01/25 02:28:38;;;;;;;;;;;;;;;1.65;100.00;103653.69;5002404;28;20031;-64
2023/01/25 02:31:05;;;;;;;;;;;;;;;1.70;100.00;103665.66;4994911;28;19933;-64
2023/01/25 02:33:31;;;;;;;;;;;;;;;1.70;100.00;103659.63;5004523;28;20389;-64
2023/01/25 02:36:04;;;;;;;;;;;;;;;1.73;100.00;103659.59;4989543;28;19930;-65
2023/01/25 02:38:32;;;;;;;;;;;;;;;1.73;100.00;103655.28;4981028;28;19933;-64
2023/01/25 02:41:04;;;;;;;;;;;;;;;1.76;100.00;103664.72;4993901;28;19930;-64
2023/01/25 02:43:31;;;;;;;;;;;;;;;1.76;100.00;103662.13;4999864;28;19936;-64
2023/01/25 02:46:02;;;;;;;;;;;;;;;1.76;100.00;103655.25;5003407;28;19929;-64
2023/01/25 02:48:29;;;;;;;;;;;;;;;1.76;100.00;103659.56;5001959;28;19929;-64
2023/01/25 02:50:55;;;;;;;;;;;;;;;1.78;100.00;103656.09;5004889;28;20461;-64
2023/01/25 02:53:21;;;;;;;;;;;;;;;1.84;100.00;103654.28;4986177;28;19929;-65
2023/01/25 02:55:48;;;;;;;;;;;;;;;1.85;100.00;103658.59;5003174;28;19987;-64
2023/01/25 02:58:14;;;;;;;;;;;;;;;1.78;100.00;103647.44;4999743;28;19937;-64
2023/01/25 03:00:40;;;;;;;;;;;;;;;1.81;100.00;103652.59;5004948;28;20417;-64
2023/01/25 03:03:07;;;;;;;;;;;;;;;1.81;100.00;103652.59;4988457;28;20401;-64
2023/01/25 03:05:33;;;;;;;;;;;;;;;1.82;100.00;103648.28;4978335;28;19929;-65
2023/01/25 03:07:59;;;;;;;;;;;;;;;1.74;100.00;103651.81;4999066;28;20086;-64
2023/01/25 03:10:26;;;;;;;;;;;;;;;1.71;100.00;103644.09;4997521;28;19944;-63
2023/01/25 03:12:53;;;;;;;;;;;;;;;1.66;100.00;103642.44;5003433;28;19925;-64
2023/01/25 03:15:19;;;;;;;;;;;;;;;1.60;100.00;103640.78;4998891;28;19925;-63
2023/01/25 03:17:45;;;;;;;;;;;;;;;1.55;100.00;103640.00;5001074;28;20381;-64
2023/01/25 03:20:12;;;;;;;;;;;;;;;1.67;100.00;103631.22;5001395;28;19930;-63
2023/01/25 03:22:38;;;;;;;;;;;;;;;1.56;100.00;103631.34;4982641;28;19965;-69
2023/01/25 03:25:05;;;;;;;;;;;;;;;1.54;100.00;103620.16;5003633;28;20291;-64
2023/01/25 03:27:32;;;;;;;;;;;;;;;1.50;100.00;103614.16;4997899;28;19937;-63
2023/01/25 03:29:58;;;;;;;;;;;;;;;1.53;100.00;103614.13;4995017;28;19964;-64
2023/01/25 03:32:24;;;;;;;;;;;;;;;1.56;100.00;103616.66;4998606;28;19940;-64
2023/01/25 03:34:51;;;;;;;;;;;;;;;1.57;100.00;103614.97;5000485;28;19930;-65
2023/01/25 03:37:17;;;;;;;;;;;;;;;1.58;100.00;103614.06;5003064;28;19936;-63
2023/01/25 03:39:44;;;;;;;;;;;;;;;1.62;100.00;103613.16;4998657;28;19936;-63
2023/01/25 03:42:10;;;;;;;;;;;;;;;1.62;100.00;103610.56;5005080;28;20020;-63
2023/01/25 03:44:36;;;;;;;;;;;;;;;1.62;100.00;103605.38;4994561;28;19930;-63
2023/01/25 03:47:03;;;;;;;;;;;;;;;1.61;100.00;103608.00;4995196;28;19926;-65
2023/01/25 03:49:29;;;;;;;;;;;;;;;1.64;100.00;103607.97;4999489;28;19929;-65
2023/01/25 03:51:56;;;;;;;;;;;;;;;1.67;100.00;103610.53;5003409;28;20382;-63
2023/01/25 03:54:23;;;;;;;;;;;;;;;1.60;100.00;103606.28;4993775;28;19936;-66
2023/01/25 03:56:49;;;;;;;;;;;;;;;1.59;100.00;103605.44;4998928;28;19929;-65
2023/01/25 03:59:16;;;;;;;;;;;;;;;1.56;100.00;103603.72;4983630;28;19930;-63
2023/01/25 04:01:42;;;;;;;;;;;;;;;1.46;100.00;103604.72;4981023;28;19936;-65
2023/01/25 04:04:08;;;;;;;;;;;;;;;1.42;100.00;103600.47;4989105;28;19933;-64
2023/01/25 04:06:35;;;;;;;;;;;;;;;1.38;100.00;103598.78;4993400;28;19929;-63
2023/01/25 04:09:01;;;;;;;;;;;;;;;1.32;100.00;103591.13;5001483;28;19929;-63
2023/01/25 04:11:27;;;;;;;;;;;;;;;1.29;100.00;103591.16;5000968;28;20535;-64
2023/01/25 04:13:54;;;;;;;;;;;;;;;1.39;100.00;103592.72;4992891;28;19936;-64
2023/01/25 04:16:20;;;;;;;;;;;;;;;1.46;100.00;103590.94;4986656;28;19926;-63
2023/01/25 04:18:46;;;;;;;;;;;;;;;1.49;100.00;103586.59;4994236;28;20073;-63
2023/01/25 04:21:13;;;;;;;;;;;;;;;1.46;100.00;103583.19;4998835;28;19930;-63
2023/01/25 04:23:39;;;;;;;;;;;;;;;1.39;100.00;103577.22;4997885;28;19977;-64
2023/01/25 04:26:07;;;;;;;;;;;;;;;1.46;100.00;103585.78;4990120;28;20357;-64
2023/01/25 04:28:33;;;;;;;;;;;;;;;1.41;100.00;103574.63;4979896;28;19929;-63
2023/01/25 04:31:00;;;;;;;;;;;;;;;1.35;100.00;103576.44;4997243;28;19934;-63
2023/01/25 04:33:27;;;;;;;;;;;;;;;1.12;100.00;103568.94;5001003;28;20037;-63
2023/01/25 04:35:53;;;;;;;;;;;;;;;1.06;100.00;103574.19;4990078;28;19979;-64
2023/01/25 04:38:19;;;;;;;;;;;;;;;1.01;100.00;103568.19;5001054;28;20430;-63
2023/01/25 04:40:46;;;;;;;;;;;;;;;0.96;100.00;103568.25;5000292;28;19959;-63
2023/01/25 04:43:12;;;;;;;;;;;;;;;0.93;100.00;103570.00;4976602;28;19929;-63
2023/01/25 04:45:39;;;;;;;;;;;;;;;0.84;100.00;103572.69;5002531;28;19926;-64
2023/01/25 04:48:10;;;;;;;;;;;;;;;0.77;100.00;103575.34;4994420;28;20302;-63
2023/01/25 04:50:40;;;;;;;;;;;;;;;0.78;100.00;103569.31;5001265;28;20798;-63
2023/01/25 04:53:08;;;;;;;;;;;;;;;0.78;100.00;103564.13;4993950;28;19941;-63
2023/01/25 04:55:34;;;;;;;;;;;;;;;0.67;100.00;103557.38;4997966;28;20370;-63
2023/01/25 04:58:00;;;;;;;;;;;;;;;0.73;100.00;103565.06;5000399;28;19929;-63
2023/01/25 05:00:27;;;;;;;;;;;;;;;0.64;100.00;103558.22;4996361;28;19930;-63
2023/01/25 05:02:54;;;;;;;;;;;;;;;0.81;100.00;103562.41;5003958;28;20339;-63
2023/01/25 05:05:20;;;;;;;;;;;;;;;0.64;100.00;103550.47;4997312;28;19933;-63
2023/01/25 05:07:46;;;;;;;;;;;;;;;0.71;100.00;103551.28;5004296;28;19934;-64
2023/01/25 05:10:13;;;;;;;;;;;;;;;0.62;100.00;103556.53;4995608;28;19933;-63
2023/01/25 05:12:39;;;;;;;;;;;;;;;0.73;100.00;103552.97;4996016;28;19929;-63
2023/01/25 05:15:06;;;;;;;;;;;;;;;0.77;100.00;103546.06;5005564;28;19984;-63
2023/01/25 05:17:33;;;;;;;;;;;;;;;0.87;100.00;103544.25;5000847;28;20313;-63
2023/01/25 05:19:59;;;;;;;;;;;;;;;0.87;100.00;103544.25;5006785;28;19980;-64
2023/01/25 05:22:25;;;;;;;;;;;;;;;0.84;100.00;103544.25;4994463;28;20513;-64
2023/01/25 05:24:51;;;;;;;;;;;;;;;0.91;100.00;103544.19;5002878;28;19936;-64
2023/01/25 05:27:19;;;;;;;;;;;;;;;0.87;100.00;103545.09;5002988;28;20659;-64
2023/01/25 05:29:45;;;;;;;;;;;;;;;0.99;100.00;103539.78;4996855;28;19972;-63
2023/01/25 05:32:13;;;;;;;;;;;;;;;1.05;100.00;103541.44;5000582;28;19929;-64
2023/01/25 05:34:40;;;;;;;;;;;;;;;1.11;100.00;103543.09;4981585;28;20005;-64
2023/01/25 05:37:07;;;;;;;;;;;;;;;1.11;100.00;103549.09;5001178;28;19925;-63
2023/01/25 05:39:33;;;;;;;;;;;;;;;1.13;100.00;103537.03;4997897;28;20386;-63
2023/01/25 05:41:59;;;;;;;;;;;;;;;1.19;100.00;103539.53;4993127;28;19937;-63
2023/01/25 05:44:26;;;;;;;;;;;;;;;1.06;100.00;103542.28;4995057;28;19929;-64
2023/01/25 05:46:52;;;;;;;;;;;;;;;1.07;100.00;103539.69;4988055;28;20356;-63
2023/01/25 05:49:19;;;;;;;;;;;;;;;1.07;100.00;103541.41;5006488;28;19925;-64
2023/01/25 05:51:45;;;;;;;;;;;;;;;1.04;100.00;103537.16;4987744;28;19948;-64
2023/01/25 05:54:16;;;;;;;;;;;;;;;1.07;100.00;103537.09;4999355;28;19949;-64
2023/01/25 05:56:43;;;;;;;;;;;;;;;1.13;100.00;103534.44;4998794;28;19934;-64
2023/01/25 05:59:10;;;;;;;;;;;;;;;1.09;100.00;103539.66;5006970;28;20658;-64
2023/01/25 06:01:37;;;;;;;;;;;;;;;1.12;100.00;103535.31;5006231;28;19975;-63
2023/01/25 06:04:03;;;;;;;;;;;;;;;1.12;100.00;103537.06;4996277;28;19984;-63
2023/01/25 06:06:29;;;;;;;;;;;;;;;1.07;100.00;103541.41;5001809;28;19929;-63
2023/01/25 06:08:55;;;;;;;;;;;;;;;1.13;100.00;103546.50;4992510;28;19925;-63
2023/01/25 06:11:23;;;;;;;;;;;;;;;1.03;100.00;103539.75;5003711;28;19949;-63
2023/01/25 06:13:50;;;;;;;;;;;;;;;0.91;100.00;103545.91;5001494;28;20313;-63
2023/01/25 06:16:17;;;;;;;;;;;;;;;0.96;100.00;103541.53;5000471;28;19932;-64
2023/01/25 06:18:43;;;;;;;;;;;;;;;1.03;100.00;103544.91;4999777;28;19930;-64
2023/01/25 06:21:10;;;;;;;;;;;;;;;0.98;100.00;103542.38;4983773;28;19933;-64
2023/01/25 06:23:36;;;;;;;;;;;;;;;0.99;100.00;103541.50;5004063;28;19926;-63
2023/01/25 06:26:04;;;;;;;;;;;;;;;0.87;100.00;103536.47;4997674;28;20287;-63
2023/01/25 06:28:32;;;;;;;;;;;;;;;0.90;100.00;103547.66;5001968;28;19926;-64
2023/01/25 06:31:04;;;;;;;;;;;;;;;0.89;100.00;103545.91;4996156;28;20405;-64
2023/01/25 06:33:31;;;;;;;;;;;;;;;0.90;100.00;103545.06;4991144;28;19926;-63
2023/01/25 06:36:01;;;;;;;;;;;;;;;0.92;100.00;103552.78;5002347;28;19933;-63
2023/01/25 06:38:27;;;;;;;;;;;;;;;0.93;100.00;103546.75;5000528;28;19934;-63
2023/01/25 06:40:57;;;;;;;;;;;;;;;0.99;100.00;103538.91;5005545;28;20020;-64
2023/01/25 06:43:23;;;;;;;;;;;;;;;1.00;100.00;103540.66;4991603;28;19930;-64
2023/01/25 06:45:49;;;;;;;;;;;;;;;0.99;100.00;103539.78;4989470;28;19933;-64
2023/01/25 06:48:16;;;;;;;;;;;;;;;0.93;100.00;103536.41;4993616;28;19937;-64
2023/01/25 06:50:42;;;;;;;;;;;;;;;0.96;100.00;103536.34;5004409;28;19936;-64
2023/01/25 06:53:08;;;;;;;;;;;;;;;0.96;100.00;103534.66;4991273;28;20362;-64
2023/01/25 06:55:35;;;;;;;;;;;;;;;1.00;100.00;103535.47;4996983;28;19930;-64
2023/01/25 06:58:01;;;;;;;;;;;;;;;0.98;100.00;103530.31;4986549;28;19929;-64
2023/01/25 07:00:27;;;;;;;;;;;;;;;0.95;100.00;103532.06;4995445;28;19930;-66
2023/01/25 07:02:54;;;;;;;;;;;;;;;1.01;100.00;103528.56;4998244;28;19930;-65
2023/01/25 07:05:20;;;;;;;;;;;;;;;1.03;100.00;103524.25;4991709;28;19957;-65
2023/01/25 07:07:47;;;;;;;;;;;;;;;1.08;100.00;103530.19;4997431;28;19934;-65
2023/01/25 07:10:13;;;;;;;;;;;;;;;1.02;100.00;103531.16;5005616;28;19925;-64
2023/01/25 07:12:40;;;;;;;;;;;;;;;0.94;100.00;103533.81;4999245;28;19930;-66
2023/01/25 07:15:06;;;;;;;;;;;;;;;0.84;100.00;103539.09;4996220;28;20357;-64
2023/01/25 07:17:33;;;;;;;;;;;;;;;0.78;100.00;103535.72;4995525;28;19936;-64
2023/01/25 07:19:59;;;;;;;;;;;;;;;0.85;100.00;103533.91;5004212;28;19976;-64
2023/01/25 07:22:26;;;;;;;;;;;;;;;0.94;100.00;103531.22;4996133;28;19930;-65
2023/01/25 07:24:52;;;;;;;;;;;;;;;1.04;100.00;103523.34;4996451;28;19994;-65
2023/01/25 07:27:19;;;;;;;;;;;;;;;1.08;100.00;103512.97;5002553;28;20634;-64
2023/01/25 07:29:45;;;;;;;;;;;;;;;1.07;100.00;103519.00;4989832;28;19936;-65
2023/01/25 07:32:12;;;;;;;;;;;;;;;1.04;100.00;103513.00;5004145;28;20400;-64
2023/01/25 07:34:39;;;;;;;;;;;;;;;1.04;100.00;103505.25;4996947;28;19930;-65
2023/01/25 07:37:05;;;;;;;;;;;;;;;1.02;100.00;103512.16;5001334;28;19933;-64
2023/01/25 07:39:32;;;;;;;;;;;;;;;0.94;100.00;103512.25;4999113;28;20333;-65
2023/01/25 07:41:58;;;;;;;;;;;;;;;0.92;100.00;103509.72;4969672;28;19937;-66
2023/01/25 07:44:24;;;;;;;;;;;;;;;0.90;100.00;103516.63;4994098;28;19936;-65
2023/01/25 07:46:51;;;;;;;;;;;;;;;0.88;100.00;103517.50;4983557;28;19935;-63
2023/01/25 07:49:18;;;;;;;;;;;;;;;0.83;100.00;103516.72;4996060;28;20034;-66
2023/01/25 07:51:44;;;;;;;;;;;;;;;0.76;100.00;103511.59;4985477;28;19929;-63
2023/01/25 07:54:11;;;;;;;;;;;;;;;0.81;100.00;103508.13;5002764;28;20690;-64
2023/01/25 07:56:39;;;;;;;;;;;;;;;0.67;100.00;103511.72;4992510;28;20317;-64
2023/01/25 07:59:08;;;;;;;;;;;;;;;0.60;100.00;103515.22;4978359;28;19929;-64
2023/01/25 08:01:35;;;;;;;;;;;;;;;0.67;100.00;103503.13;5002574;28;20436;-65
2023/01/25 08:04:03;;;;;;;;;;;;;;;0.75;100.00;103504.72;4997310;28;20044;-64
2023/01/25 08:06:34;;;;;;;;;;;;;;;0.83;100.00;103499.47;4991658;28;19980;-65
2023/01/25 08:09:09;;;;;;;;;;;;;;;0.84;100.00;103502.91;4996843;28;19929;-64
2023/01/25 08:11:36;;;;;;;;;;;;;;;0.82;100.00;103496.91;4996937;28;19965;-65
2023/01/25 08:14:02;;;;;;;;;;;;;;;0.87;100.00;103495.97;5001107;28;20009;-64
2023/01/25 08:16:29;;;;;;;;;;;;;;;0.89;100.00;103491.66;4990998;28;20020;-65
2023/01/25 08:18:57;;;;;;;;;;;;;;;0.91;100.00;103497.66;5001386;28;19930;-65
2023/01/25 08:21:24;;;;;;;;;;;;;;;0.92;100.00;103489.03;4998924;28;19944;-65
2023/01/25 08:23:50;;;;;;;;;;;;;;;0.89;100.00;103493.38;4993121;28;19952;-64
2023/01/25 08:26:17;;;;;;;;;;;;;;;0.93;100.00;103489.88;4991807;28;20638;-65
2023/01/25 08:28:44;;;;;;;;;;;;;;;0.87;100.00;103501.16;4992005;28;19976;-64
2023/01/25 08:31:12;;;;;;;;;;;;;;;0.88;100.00;103502.00;4999528;28;19936;-64
2023/01/25 08:33:38;;;;;;;;;;;;;;;0.89;100.00;103496.81;4997486;28;19933;-64
2023/01/25 08:36:07;;;;;;;;;;;;;;;0.90;100.00;103490.78;4995500;28;19984;-65
2023/01/25 08:38:34;;;;;;;;;;;;;;;0.93;100.00;103482.97;4987582;28;20072;-65
2023/01/25 08:41:05;;;;;;;;;;;;;;;0.96;100.00;103484.66;4990429;28;19930;-65
2023/01/25 08:43:31;;;;;;;;;;;;;;;0.91;100.00;103481.31;4994813;28;19984;-65
2023/01/25 08:45:58;;;;;;;;;;;;;;;0.76;100.00;103484.91;4989325;28;19925;-65
2023/01/25 08:48:24;;;;;;;;;;;;;;;0.71;100.00;103484.13;5004898;28;19929;-65
2023/01/25 08:50:50;;;;;;;;;;;;;;;0.59;100.00;103475.63;4993411;28;19930;-65
2023/01/25 08:53:17;;;;;;;;;;;;;;;0.66;100.00;103476.41;4990345;28;20505;-65
2023/01/25 08:55:44;;;;;;;;;;;;;;;0.70;100.00;103482.41;4985140;28;19991;-65
2023/01/25 08:58:11;;;;;;;;;;;;;;;0.73;100.00;103477.22;5004744;28;19941;-65
2023/01/25 09:00:38;;;;;;;;;;;;;;;0.71;100.00;103474.63;5004877;28;19944;-65
2023/01/25 09:03:05;;;;;;;;;;;;;;;0.74;100.00;103474.59;4999069;28;19984;-65
2023/01/25 09:05:35;;;;;;;;;;;;;;;0.81;100.00;103474.53;5003704;28;19976;-65
2023/01/25 09:08:03;;;;;;;;;;;;;;;0.83;100.00;103475.38;4995209;28;19937;-65
2023/01/25 09:10:32;;;;;;;;;;;;;;;0.90;100.00;103464.94;5003662;28;19929;-64
2023/01/25 09:13:01;;;;;;;;;;;;;;;0.91;100.00;103465.78;4997391;28;19925;-65
2023/01/25 09:15:28;;;;;;;;;;;;;;;0.95;100.00;103457.97;5006929;28;20464;-65
2023/01/25 09:17:54;;;;;;;;;;;;;;;1.03;100.00;103459.63;5006380;28;19975;-66
2023/01/25 09:20:21;;;;;;;;;;;;;;;1.06;100.00;103464.72;4995691;28;20283;-64
2023/01/25 09:22:48;;;;;;;;;;;;;;;1.11;100.00;103458.63;4997435;28;19981;-64
2023/01/25 09:25:14;;;;;;;;;;;;;;;1.09;100.00;103462.13;4997986;28;20683;-64
2023/01/25 09:27:41;;;;;;;;;;;;;;;1.05;100.00;103456.13;5004810;28;20337;-64
2023/01/25 09:30:08;;;;;;;;;;;;;;;1.12;100.00;103455.19;5000707;28;19933;-65
2023/01/25 09:32:43;;;;;;;;;;;;;;;1.13;100.00;103445.69;5006060;28;20389;-64
2023/01/25 09:35:10;;;;;;;;;;;;;;;1.15;100.00;103454.28;4999992;28;20301;-65
2023/01/25 09:37:37;;;;;;;;;;;;;;;1.18;100.00;103455.09;4978574;28;19929;-65
2023/01/25 09:40:06;;;;;;;;;;;;;;;1.19;100.00;103454.19;5003310;28;19961;-66
2023/01/25 09:42:54;;;;;;;;;;;;;;;1.21;100.00;103446.44;5000408;28;19940;-65
2023/01/25 09:45:31;;;;;;;;;;;;;;;1.16;100.00;103450.81;4994800;28;19934;-65
2023/01/25 09:48:09;;;;;;;;;;;;;;;1.09;100.00;103450.03;4996993;28;19937;-65
2023/01/25 09:50:41;;;;;;;;;;;;;;;1.11;100.00;103447.44;4984454;28;19929;-65
2023/01/25 09:53:24;;;;;;;;;;;;;;;1.09;100.00;103451.78;4995697;28;19929;-65
2023/01/25 09:55:57;;;;;;;;;;;;;;;1.14;100.00;103442.25;5003167;28;19929;-64
2023/01/25 09:58:29;;;;;;;;;;;;;;;1.08;100.00;103439.72;5003572;28;20028;-66
2023/01/25 10:01:16;;;;;;;;;;;;;;;1.02;100.00;103443.25;4988617;28;19929;-65
2023/01/25 10:03:54;;;;;;;;;;;;;;;1.10;100.00;103444.00;5001363;28;19929;-65
2023/01/25 10:06:22;;;;;;;;;;;;;;;1.12;100.00;103449.16;4990053;28;19926;-64
2023/01/25 10:09:00;;;;;;;;;;;;;;;1.05;100.00;103439.78;5006095;28;20394;-66
2023/01/25 10:11:29;;;;;;;;;;;;;;;1.08;100.00;103443.16;4999600;28;19936;-64
2023/01/25 10:13:57;;;;;;;;;;;;;;;1.08;100.00;103438.00;5006205;28;19929;-64
2023/01/25 10:16:23;;;;;;;;;;;;;;;1.10;100.00;103446.59;4997629;28;19972;-64
2023/01/25 10:19:01;;;;;;;;;;;;;;;1.09;100.00;103444.88;4999585;28;19937;-64
2023/01/25 10:21:41;;;;;;;;;;;;;;;1.05;100.00;103444.94;4997162;28;20047;-65
2023/01/25 10:24:17;;;;;;;;;;;;;;;0.97;100.00;103435.53;4987802;28;19952;-66
2023/01/25 10:26:47;;;;;;;;;;;;;;;0.99;100.00;103425.19;4996411;28;19964;-64
2023/01/25 10:29:20;;;;;;;;;;;;;;;0.94;100.00;103422.69;4999549;28;19929;-66
2023/01/25 10:31:49;;;;;;;;;;;;;;;0.81;100.00;103426.28;5003275;28;19930;-64
2023/01/25 10:34:17;;;;;;;;;;;;;;;0.82;100.00;103414.22;4993152;28;19929;-64
2023/01/25 10:36:46;;;;;;;;;;;;;;;0.77;100.00;103409.97;4991814;28;19929;-65
2023/01/25 10:39:12;;;;;;;;;;;;;;;0.78;100.00;103406.53;4989060;28;19925;-64
2023/01/25 10:41:44;;;;;;;;;;;;;;;0.86;100.00;103400.38;5000626;28;19936;-64
2023/01/25 10:44:25;;;;;;;;;;;;;;;0.80;100.00;103390.97;5007427;28;20353;-63
2023/01/25 10:47:06;;;;;;;;;;;;;;;0.77;100.00;103386.72;4998838;28;19952;-64
2023/01/25 10:49:32;;;;;;;;;;;;;;;0.58;100.00;103377.47;5001314;28;19932;-64
2023/01/25 10:52:13;;;;;;;;;;;;;;;0.49;100.00;103367.25;4997249;28;19933;-64
2023/01/25 10:54:40;;;;;;;;;;;;;;;0.49;100.00;103364.66;5004683;28;20369;-65
2023/01/25 10:57:07;;;;;;;;;;;;;;;0.56;100.00;103364.56;5001268;28;20352;-65
2023/01/25 10:59:35;;;;;;;;;;;;;;;0.58;100.00;103356.81;4998502;28;19996;-65
2023/01/25 11:02:22;;;;;;;;;;;;;;;0.67;100.00;103351.53;4996158;28;19932;-64
2023/01/25 11:04:48;;;;;;;;;;;;;;;0.83;100.00;103343.59;4989202;28;19955;-64
2023/01/25 11:07:27;;;;;;;;;;;;;;;0.88;100.00;103337.47;5000993;28;19925;-67
2023/01/25 11:09:54;;;;;;;;;;;;;;;0.88;100.00;103334.03;4997022;28;19934;-64
2023/01/25 11:12:20;;;;;;;;;;;;;;;0.83;100.00;103328.09;5003976;28;20000;-65
2023/01/25 11:14:50;;;;;;;;;;;;;;;0.81;100.00;103317.75;4979881;28;19926;-65
2023/01/25 11:17:25;;;;;;;;;;;;;;;0.78;100.00;103316.09;4994003;28;19926;-65
2023/01/25 11:20:06;;;;;;;;;;;;;;;0.80;100.00;103313.47;4989067;28;19941;-65
2023/01/25 11:22:33;;;;;;;;;;;;;;;0.76;100.00;103307.47;4996845;28;19964;-64
2023/01/25 11:25:19;;;;;;;;;;;;;;;0.79;100.00;103299.69;4999867;28;20013;-65
2023/01/25 11:27:46;;;;;;;;;;;;;;;0.79;100.00;103296.25;5001168;28;19929;-66
2023/01/25 11:30:17;;;;;;;;;;;;;;;0.74;100.00;103291.13;5000317;28;19930;-64
2023/01/25 11:32:44;;;;;;;;;;;;;;;0.87;100.00;103294.41;5003936;28;19926;-65
2023/01/25 11:35:20;;;;;;;;;;;;;;;0.86;100.00;103287.53;5007491;28;20008;-65
2023/01/25 11:37:52;;;;;;;;;;;;;;;0.91;100.00;103279.72;5000830;28;19929;-65
2023/01/25 11:40:21;;;;;;;;;;;;;;;0.90;100.00;103268.53;4999952;28;20308;-64
2023/01/25 11:43:07;;;;;;;;;;;;;;;0.99;100.00;103272.69;4990298;28;19936;-65
2023/01/25 11:46:00;;;;;;;;;;;;;;;0.94;100.00;103265.03;4985372;28;19925;-64
2023/01/25 11:48:42;;;;;;;;;;;;;;;0.90;100.00;103249.56;4964674;28;19972;-64
2023/01/25 11:51:32;;;;;;;;;;;;;;;0.70;100.00;103248.16;5001528;28;19933;-65
2023/01/25 11:54:01;;;;;;;;;;;;;;;0.54;100.00;103241.50;4946703;28;19960;-65
2023/01/25 11:56:50;;;;;;;;;;;;;;;0.40;100.00;103236.53;5002674;28;19926;-65
2023/01/25 11:59:34;;;;;;;;;;;;;;;0.33;100.00;103234.91;4991809;28;19926;-65
2023/01/25 12:02:08;;;;;;;;;;;;;;;0.30;100.00;103224.63;4998461;28;20000;-65
2023/01/25 12:04:50;;;;;;;;;;;;;;;0.38;100.00;103222.78;5008643;28;19937;-64
2023/01/25 12:07:27;;;;;;;;;;;;;;;0.50;100.00;103212.28;5001819;28;19929;-65
2023/01/25 12:10:02;;;;;;;;;;;;;;;0.35;100.00;103207.34;5004353;28;19933;-65
2023/01/25 12:12:35;;;;;;;;;;;;;;;0.29;100.00;103200.53;4999816;28;19926;-65
2023/01/25 12:15:07;;;;;;;;;;;;;;;0.27;100.00;103188.53;5018591;28;19926;-65
2023/01/25 12:17:33;;;;;;;;;;;;;;;0.38;100.00;103189.22;5002092;28;19962;-66
2023/01/25 12:20:06;;;;;;;;;;;;;;;0.42;100.00;103179.72;5016508;28;20028;-65
2023/01/25 12:22:42;;;;;;;;;;;;;;;0.33;100.00;103172.94;4997927;28;19933;-65
2023/01/25 12:25:28;;;;;;;;;;;;;;;0.22;100.00;103172.22;5005165;28;19977;-65
2023/01/25 12:28:05;;;;;;;;;;;;;;;0.22;100.00;103165.38;5000230;28;20006;-65
2023/01/25 12:30:34;;;;;;;;;;;;;;;0.17;100.00;103159.41;4997692;28;19933;-65
2023/01/25 12:33:07;;;;;;;;;;;;;;;0.25;100.00;103151.56;5005960;28;19949;-66
2023/01/25 12:36:12;;;;;;;;;;;;;;;0.28;100.00;103146.34;4998515;28;19934;-65
2023/01/25 12:38:41;;;;;;;;;;;;;;;0.42;100.00;103135.81;4952160;28;19929;-65
2023/01/25 12:41:19;;;;;;;;;;;;;;;0.37;100.00;103134.16;4995583;28;19937;-65
2023/01/25 12:43:47;;;;;;;;;;;;;;;0.38;100.00;103127.25;4999870;28;19988;-64